sensor_id;sensor_type;location;lat;lon;timestamp;temperature;humidity
31731;DHT22;18310;55.586;12.286;2023-03-23T00:00:48;13.00;78.60
31731;DHT22;18310;55.586;12.286;2023-03-23T00:03:52;13.10;78.70
31731;DHT22;18310;55.586;12.286;2023-03-23T00:06:57;13.30;78.80
31731;DHT22;18310;55.586;12.286;2023-03-23T00:10:01;13.00;78.60
31731;DHT22;18310;55.586;12.286;2023-03-23T00:13:06;13.10;78.60
31731;DHT22;18310;55.586;12.286;2023-03-23T00:16:08;13.00;78.50
31731;DHT22;18310;55.586;12.286;2023-03-23T00:19:17;13.10;78.90
31731;DHT22;18310;55.586;12.286;2023-03-23T00:22:21;13.10;78.50
31731;DHT22;18310;55.586;12.286;2023-03-23T00:25:26;13.10;78.50
31731;DHT22;18310;55.586;12.286;2023-03-23T00:28:29;13.10;78.60
31731;DHT22;18310;55.586;12.286;2023-03-23T00:31:32;12.90;78.50
31731;DHT22;18310;55.586;12.286;2023-03-23T00:34:35;13.10;78.60
31731;DHT22;18310;55.586;12.286;2023-03-23T00:37:39;13.10;78.50
31731;DHT22;18310;55.586;12.286;2023-03-23T00:40:41;13.30;78.60
31731;DHT22;18310;55.586;12.286;2023-03-23T00:43:46;13.00;78.40
31731;DHT22;18310;55.586;12.286;2023-03-23T00:46:49;13.00;78.50
31731;DHT22;18310;55.586;12.286;2023-03-23T00:49:52;13.00;78.40
31731;DHT22;18310;55.586;12.286;2023-03-23T00:52:57;13.00;78.50
31731;DHT22;18310;55.586;12.286;2023-03-23T00:56:00;13.00;78.50
31731;DHT22;18310;55.586;12.286;2023-03-23T00:59:04;13.00;78.50
31731;DHT22;18310;55.586;12.286;2023-03-23T01:02:06;13.10;78.60
31731;DHT22;18310;55.586;12.286;2023-03-23T01:05:10;13.10;78.50
31731;DHT22;18310;55.586;12.286;2023-03-23T01:08:13;13.10;78.40
31731;DHT22;18310;55.586;12.286;2023-03-23T01:11:17;13.00;78.30
31731;DHT22;18310;55.586;12.286;2023-03-23T01:14:21;13.20;78.60
31731;DHT22;18310;55.586;12.286;2023-03-23T01:17:24;13.00;78.20
31731;DHT22;18310;55.586;12.286;2023-03-23T01:20:26;13.00;78.30
31731;DHT22;18310;55.586;12.286;2023-03-23T01:23:29;13.00;78.40
31731;DHT22;18310;55.586;12.286;2023-03-23T01:26:33;13.00;78.40
31731;DHT22;18310;55.586;12.286;2023-03-23T01:29:37;13.00;78.50
31731;DHT22;18310;55.586;12.286;2023-03-23T01:32:40;13.00;78.60
31731;DHT22;18310;55.586;12.286;2023-03-23T01:35:42;13.00;78.70
31731;DHT22;18310;55.586;12.286;2023-03-23T01:38:46;13.00;78.50
31731;DHT22;18310;55.586;12.286;2023-03-23T01:41:50;13.00;78.70
31731;DHT22;18310;55.586;12.286;2023-03-23T01:45:31;13.10;78.60
31731;DHT22;18310;55.586;12.286;2023-03-23T01:48:37;13.10;78.70
31731;DHT22;18310;55.586;12.286;2023-03-23T01:51:43;13.20;78.60
31731;DHT22;18310;55.586;12.286;2023-03-23T01:54:51;13.00;78.40
31731;DHT22;18310;55.586;12.286;2023-03-23T01:57:57;13.10;78.50
31731;DHT22;18310;55.586;12.286;2023-03-23T02:01:04;13.00;78.40
31731;DHT22;18310;55.586;12.286;2023-03-23T02:04:13;13.10;78.40
31731;DHT22;18310;55.586;12.286;2023-03-23T02:07:19;13.40;79.00
31731;DHT22;18310;55.586;12.286;2023-03-23T02:10:24;13.70;78.70
31731;DHT22;18310;55.586;12.286;2023-03-23T02:13:27;13.10;78.30
31731;DHT22;18310;55.586;12.286;2023-03-23T02:16:38;13.10;78.30
31731;DHT22;18310;55.586;12.286;2023-03-23T02:20:06;13.20;78.30
31731;DHT22;18310;55.586;12.286;2023-03-23T02:23:33;13.20;78.40
31731;DHT22;18310;55.586;12.286;2023-03-23T02:26:53;13.10;78.40
31731;DHT22;18310;55.586;12.286;2023-03-23T02:30:10;13.10;78.30
31731;DHT22;18310;55.586;12.286;2023-03-23T02:33:32;13.10;78.50
31731;DHT22;18310;55.586;12.286;2023-03-23T02:36:40;13.10;78.50
31731;DHT22;18310;55.586;12.286;2023-03-23T02:39:50;13.10;78.60
31731;DHT22;18310;55.586;12.286;2023-03-23T02:42:55;13.10;78.50
31731;DHT22;18310;55.586;12.286;2023-03-23T02:46:00;13.10;78.60
31731;DHT22;18310;55.586;12.286;2023-03-23T02:49:11;13.10;78.70
31731;DHT22;18310;55.586;12.286;2023-03-23T02:52:20;13.10;78.60
31731;DHT22;18310;55.586;12.286;2023-03-23T02:55:25;13.10;78.50
31731;DHT22;18310;55.586;12.286;2023-03-23T02:58:29;13.10;78.50
31731;DHT22;18310;55.586;12.286;2023-03-23T03:02:05;13.40;78.70
31731;DHT22;18310;55.586;12.286;2023-03-23T03:05:18;13.00;78.80
31731;DHT22;18310;55.586;12.286;2023-03-23T03:08:32;12.90;78.50
31731;DHT22;18310;55.586;12.286;2023-03-23T03:11:45;12.90;78.50
31731;DHT22;18310;55.586;12.286;2023-03-23T03:14:58;12.90;78.60
31731;DHT22;18310;55.586;12.286;2023-03-23T03:18:13;12.90;78.80
31731;DHT22;18310;55.586;12.286;2023-03-23T03:21:28;12.80;78.80
31731;DHT22;18310;55.586;12.286;2023-03-23T03:24:33;12.90;79.00
31731;DHT22;18310;55.586;12.286;2023-03-23T03:27:38;12.90;79.00
31731;DHT22;18310;55.586;12.286;2023-03-23T03:30:42;12.90;79.00
31731;DHT22;18310;55.586;12.286;2023-03-23T03:33:47;12.90;79.00
31731;DHT22;18310;55.586;12.286;2023-03-23T03:36:53;13.00;79.20
31731;DHT22;18310;55.586;12.286;2023-03-23T03:39:59;13.00;79.50
31731;DHT22;18310;55.586;12.286;2023-03-23T03:43:02;13.00;78.90
31731;DHT22;18310;55.586;12.286;2023-03-23T03:46:06;13.00;78.90
31731;DHT22;18310;55.586;12.286;2023-03-23T03:49:10;13.00;78.90
31731;DHT22;18310;55.586;12.286;2023-03-23T03:52:14;13.00;78.90
31731;DHT22;18310;55.586;12.286;2023-03-23T03:55:17;13.10;79.10
31731;DHT22;18310;55.586;12.286;2023-03-23T03:58:20;13.10;78.90
31731;DHT22;18310;55.586;12.286;2023-03-23T04:01:23;13.40;79.10
31731;DHT22;18310;55.586;12.286;2023-03-23T04:04:26;13.10;78.80
31731;DHT22;18310;55.586;12.286;2023-03-23T04:07:30;13.10;78.70
31731;DHT22;18310;55.586;12.286;2023-03-23T04:10:33;13.10;78.60
31731;DHT22;18310;55.586;12.286;2023-03-23T04:13:36;13.10;78.50
31731;DHT22;18310;55.586;12.286;2023-03-23T04:16:39;13.10;78.50
31731;DHT22;18310;55.586;12.286;2023-03-23T04:19:44;13.10;78.50
31731;DHT22;18310;55.586;12.286;2023-03-23T04:22:51;13.10;78.50
31731;DHT22;18310;55.586;12.286;2023-03-23T04:25:56;13.20;78.50
31731;DHT22;18310;55.586;12.286;2023-03-23T04:28:59;13.40;78.50
31731;DHT22;18310;55.586;12.286;2023-03-23T04:32:02;13.10;78.30
31731;DHT22;18310;55.586;12.286;2023-03-23T04:35:05;13.20;78.40
31731;DHT22;18310;55.586;12.286;2023-03-23T04:38:10;13.00;78.20
31731;DHT22;18310;55.586;12.286;2023-03-23T04:41:14;13.10;78.20
31731;DHT22;18310;55.586;12.286;2023-03-23T04:44:17;13.00;78.10
31731;DHT22;18310;55.586;12.286;2023-03-23T04:47:22;13.00;78.10
31731;DHT22;18310;55.586;12.286;2023-03-23T04:50:27;13.00;78.00
31731;DHT22;18310;55.586;12.286;2023-03-23T04:53:35;13.00;77.90
31731;DHT22;18310;55.586;12.286;2023-03-23T04:56:38;12.90;77.80
31731;DHT22;18310;55.586;12.286;2023-03-23T04:59:42;12.90;77.90
31731;DHT22;18310;55.586;12.286;2023-03-23T05:02:46;12.70;77.60
31731;DHT22;18310;55.586;12.286;2023-03-23T05:05:52;12.90;77.70
31731;DHT22;18310;55.586;12.286;2023-03-23T05:08:57;12.90;77.60
31731;DHT22;18310;55.586;12.286;2023-03-23T05:12:04;12.80;77.40
31731;DHT22;18310;55.586;12.286;2023-03-23T05:15:08;12.80;77.40
31731;DHT22;18310;55.586;12.286;2023-03-23T05:18:12;12.80;77.40
31731;DHT22;18310;55.586;12.286;2023-03-23T05:21:16;12.70;77.20
31731;DHT22;18310;55.586;12.286;2023-03-23T05:24:21;12.70;77.10
31731;DHT22;18310;55.586;12.286;2023-03-23T05:27:25;12.70;77.10
31731;DHT22;18310;55.586;12.286;2023-03-23T05:30:31;12.70;77.10
31731;DHT22;18310;55.586;12.286;2023-03-23T05:33:34;12.70;77.00
31731;DHT22;18310;55.586;12.286;2023-03-23T05:36:37;12.70;76.90
31731;DHT22;18310;55.586;12.286;2023-03-23T05:39:41;12.60;76.70
31731;DHT22;18310;55.586;12.286;2023-03-23T05:42:44;12.60;76.60
31731;DHT22;18310;55.586;12.286;2023-03-23T05:45:48;12.60;76.70
31731;DHT22;18310;55.586;12.286;2023-03-23T05:48:50;12.60;76.50
31731;DHT22;18310;55.586;12.286;2023-03-23T05:51:53;12.50;76.30
31731;DHT22;18310;55.586;12.286;2023-03-23T05:54:57;12.50;76.40
31731;DHT22;18310;55.586;12.286;2023-03-23T05:58:00;12.60;76.80
31731;DHT22;18310;55.586;12.286;2023-03-23T06:01:06;12.50;76.30
31731;DHT22;18310;55.586;12.286;2023-03-23T06:04:09;12.50;76.30
31731;DHT22;18310;55.586;12.286;2023-03-23T06:07:12;12.50;76.40
31731;DHT22;18310;55.586;12.286;2023-03-23T06:10:17;12.50;76.30
31731;DHT22;18310;55.586;12.286;2023-03-23T06:13:21;12.40;76.20
31731;DHT22;18310;55.586;12.286;2023-03-23T06:16:24;12.50;76.30
31731;DHT22;18310;55.586;12.286;2023-03-23T06:19:27;12.40;76.30
31731;DHT22;18310;55.586;12.286;2023-03-23T06:22:30;12.40;76.40
31731;DHT22;18310;55.586;12.286;2023-03-23T06:25:34;12.50;76.40
31731;DHT22;18310;55.586;12.286;2023-03-23T06:28:37;12.50;76.50
31731;DHT22;18310;55.586;12.286;2023-03-23T06:31:42;12.50;76.50
31731;DHT22;18310;55.586;12.286;2023-03-23T06:34:47;12.50;76.40
31731;DHT22;18310;55.586;12.286;2023-03-23T06:37:50;12.50;76.30
31731;DHT22;18310;55.586;12.286;2023-03-23T06:40:56;12.20;76.60
31731;DHT22;18310;55.586;12.286;2023-03-23T06:44:00;12.50;76.10
31731;DHT22;18310;55.586;12.286;2023-03-23T06:47:03;12.50;76.10
31731;DHT22;18310;55.586;12.286;2023-03-23T06:50:08;12.60;76.10
31731;DHT22;18310;55.586;12.286;2023-03-23T06:53:12;12.60;76.20
31731;DHT22;18310;55.586;12.286;2023-03-23T06:56:16;12.60;76.00
31731;DHT22;18310;55.586;12.286;2023-03-23T06:59:19;12.60;76.00
31731;DHT22;18310;55.586;12.286;2023-03-23T07:02:23;12.70;75.90
31731;DHT22;18310;55.586;12.286;2023-03-23T07:05:26;12.70;75.90
31731;DHT22;18310;55.586;12.286;2023-03-23T07:08:32;12.70;75.80
31731;DHT22;18310;55.586;12.286;2023-03-23T07:11:36;13.20;76.00
31731;DHT22;18310;55.586;12.286;2023-03-23T07:14:40;12.70;75.50
31731;DHT22;18310;55.586;12.286;2023-03-23T07:17:42;12.80;75.50
31731;DHT22;18310;55.586;12.286;2023-03-23T07:20:47;12.80;75.40
31731;DHT22;18310;55.586;12.286;2023-03-23T07:23:50;12.90;75.00
31731;DHT22;18310;55.586;12.286;2023-03-23T07:26:54;12.90;75.10
31731;DHT22;18310;55.586;12.286;2023-03-23T07:29:58;12.90;75.10
31731;DHT22;18310;55.586;12.286;2023-03-23T07:33:04;12.90;75.30
31731;DHT22;18310;55.586;12.286;2023-03-23T07:36:08;13.00;75.20
31731;DHT22;18310;55.586;12.286;2023-03-23T07:39:11;13.00;75.40
31731;DHT22;18310;55.586;12.286;2023-03-23T07:42:15;13.10;75.50
31731;DHT22;18310;55.586;12.286;2023-03-23T07:45:17;13.20;75.30
31731;DHT22;18310;55.586;12.286;2023-03-23T07:48:19;13.20;75.40
31731;DHT22;18310;55.586;12.286;2023-03-23T07:51:21;13.30;75.40
31731;DHT22;18310;55.586;12.286;2023-03-23T07:54:23;13.40;75.20
31731;DHT22;18310;55.586;12.286;2023-03-23T07:57:26;13.40;74.80
31731;DHT22;18310;55.586;12.286;2023-03-23T08:00:28;13.50;74.50
31731;DHT22;18310;55.586;12.286;2023-03-23T08:03:31;13.50;74.40
31731;DHT22;18310;55.586;12.286;2023-03-23T08:06:34;13.60;74.50
31731;DHT22;18310;55.586;12.286;2023-03-23T08:09:37;13.60;74.40
31731;DHT22;18310;55.586;12.286;2023-03-23T08:12:41;13.60;74.40
31731;DHT22;18310;55.586;12.286;2023-03-23T08:15:44;13.60;74.00
31731;DHT22;18310;55.586;12.286;2023-03-23T08:18:46;13.60;74.00
31731;DHT22;18310;55.586;12.286;2023-03-23T08:21:48;13.60;73.90
31731;DHT22;18310;55.586;12.286;2023-03-23T08:24:51;13.60;73.50
31731;DHT22;18310;55.586;12.286;2023-03-23T08:27:54;13.60;73.40
31731;DHT22;18310;55.586;12.286;2023-03-23T08:30:56;13.60;73.40
31731;DHT22;18310;55.586;12.286;2023-03-23T08:33:58;13.50;73.50
31731;DHT22;18310;55.586;12.286;2023-03-23T08:37:00;13.50;73.70
31731;DHT22;18310;55.586;12.286;2023-03-23T08:40:03;13.50;73.70
31731;DHT22;18310;55.586;12.286;2023-03-23T08:43:11;13.40;73.60
31731;DHT22;18310;55.586;12.286;2023-03-23T08:46:13;13.40;73.90
31731;DHT22;18310;55.586;12.286;2023-03-23T08:49:15;13.40;74.10
31731;DHT22;18310;55.586;12.286;2023-03-23T08:52:17;13.50;74.30
31731;DHT22;18310;55.586;12.286;2023-03-23T08:55:21;13.30;74.20
31731;DHT22;18310;55.586;12.286;2023-03-23T08:58:24;13.20;74.30
31731;DHT22;18310;55.586;12.286;2023-03-23T09:01:26;13.20;75.00
31731;DHT22;18310;55.586;12.286;2023-03-23T09:04:28;13.20;74.60
31731;DHT22;18310;55.586;12.286;2023-03-23T09:07:30;13.10;74.80
31731;DHT22;18310;55.586;12.286;2023-03-23T09:10:32;13.10;74.90
31731;DHT22;18310;55.586;12.286;2023-03-23T09:13:36;13.10;75.10
31731;DHT22;18310;55.586;12.286;2023-03-23T09:16:39;13.10;75.20
31731;DHT22;18310;55.586;12.286;2023-03-23T09:19:41;13.10;75.40
31731;DHT22;18310;55.586;12.286;2023-03-23T09:22:45;13.10;75.40
31731;DHT22;18310;55.586;12.286;2023-03-23T09:25:49;13.10;75.40
31731;DHT22;18310;55.586;12.286;2023-03-23T09:28:53;13.10;75.30
31731;DHT22;18310;55.586;12.286;2023-03-23T09:31:57;13.00;75.50
31731;DHT22;18310;55.586;12.286;2023-03-23T09:34:58;13.10;75.50
31731;DHT22;18310;55.586;12.286;2023-03-23T09:38:02;13.00;75.40
31731;DHT22;18310;55.586;12.286;2023-03-23T09:41:14;13.00;75.20
31731;DHT22;18310;55.586;12.286;2023-03-23T09:44:39;13.00;75.00
31731;DHT22;18310;55.586;12.286;2023-03-23T09:48:17;13.00;75.00
31731;DHT22;18310;55.586;12.286;2023-03-23T09:51:36;12.90;75.00
31731;DHT22;18310;55.586;12.286;2023-03-23T09:54:45;12.90;75.60
31731;DHT22;18310;55.586;12.286;2023-03-23T09:57:52;12.90;75.70
31731;DHT22;18310;55.586;12.286;2023-03-23T10:01:05;12.90;75.80
31731;DHT22;18310;55.586;12.286;2023-03-23T10:04:15;13.00;76.30
31731;DHT22;18310;55.586;12.286;2023-03-23T10:07:26;13.10;76.60
31731;DHT22;18310;55.586;12.286;2023-03-23T10:10:36;13.60;76.90
31731;DHT22;18310;55.586;12.286;2023-03-23T10:13:58;14.00;77.30
31731;DHT22;18310;55.586;12.286;2023-03-23T10:17:21;14.00;77.60
31731;DHT22;18310;55.586;12.286;2023-03-23T10:20:35;13.60;77.40
31731;DHT22;18310;55.586;12.286;2023-03-23T10:23:51;13.70;77.50
31731;DHT22;18310;55.586;12.286;2023-03-23T10:27:01;13.80;77.40
31731;DHT22;18310;55.586;12.286;2023-03-23T10:30:19;14.00;77.40
31731;DHT22;18310;55.586;12.286;2023-03-23T10:33:30;14.20;77.50
31731;DHT22;18310;55.586;12.286;2023-03-23T10:36:51;14.40;77.10
31731;DHT22;18310;55.586;12.286;2023-03-23T10:40:00;14.50;76.70
31731;DHT22;18310;55.586;12.286;2023-03-23T10:43:04;14.70;76.20
31731;DHT22;18310;55.586;12.286;2023-03-23T10:46:16;14.70;75.40
31731;DHT22;18310;55.586;12.286;2023-03-23T10:49:27;14.70;74.10
31731;DHT22;18310;55.586;12.286;2023-03-23T10:52:36;14.70;73.30
31731;DHT22;18310;55.586;12.286;2023-03-23T10:55:40;14.60;72.80
31731;DHT22;18310;55.586;12.286;2023-03-23T10:58:44;14.50;72.50
31731;DHT22;18310;55.586;12.286;2023-03-23T11:01:49;14.40;72.70
31731;DHT22;18310;55.586;12.286;2023-03-23T11:05:01;14.30;72.30
31731;DHT22;18310;55.586;12.286;2023-03-23T11:08:12;14.20;72.40
31731;DHT22;18310;55.586;12.286;2023-03-23T11:11:17;14.20;73.40
31731;DHT22;18310;55.586;12.286;2023-03-23T11:14:26;14.30;73.90
31731;DHT22;18310;55.586;12.286;2023-03-23T11:17:29;14.30;74.20
31731;DHT22;18310;55.586;12.286;2023-03-23T11:20:35;14.40;74.90
31731;DHT22;18310;55.586;12.286;2023-03-23T11:23:42;14.60;74.50
31731;DHT22;18310;55.586;12.286;2023-03-23T11:26:48;14.80;74.20
31731;DHT22;18310;55.586;12.286;2023-03-23T11:29:54;15.00;73.80
31731;DHT22;18310;55.586;12.286;2023-03-23T11:32:59;15.20;73.20
31731;DHT22;18310;55.586;12.286;2023-03-23T11:36:06;15.40;71.90
31731;DHT22;18310;55.586;12.286;2023-03-23T11:39:24;15.50;71.60
31731;DHT22;18310;55.586;12.286;2023-03-23T11:42:35;15.60;69.80
31731;DHT22;18310;55.586;12.286;2023-03-23T11:45:48;15.70;69.00
31731;DHT22;18310;55.586;12.286;2023-03-23T11:48:59;15.70;68.60
31731;DHT22;18310;55.586;12.286;2023-03-23T11:52:11;15.80;69.60
31731;DHT22;18310;55.586;12.286;2023-03-23T11:55:21;15.90;68.30
31731;DHT22;18310;55.586;12.286;2023-03-23T11:58:26;15.80;67.70
31731;DHT22;18310;55.586;12.286;2023-03-23T12:01:42;15.90;67.30
31731;DHT22;18310;55.586;12.286;2023-03-23T12:04:57;15.80;66.10
31731;DHT22;18310;55.586;12.286;2023-03-23T12:08:48;15.80;66.50
31731;DHT22;18310;55.586;12.286;2023-03-23T12:12:08;15.80;66.00
31731;DHT22;18310;55.586;12.286;2023-03-23T12:15:17;15.70;66.60
31731;DHT22;18310;55.586;12.286;2023-03-23T12:18:32;15.80;65.30
31731;DHT22;18310;55.586;12.286;2023-03-23T12:21:43;15.80;66.60
31731;DHT22;18310;55.586;12.286;2023-03-23T12:25:03;15.80;66.80
31731;DHT22;18310;55.586;12.286;2023-03-23T12:28:23;15.80;66.70
31731;DHT22;18310;55.586;12.286;2023-03-23T12:31:38;15.90;66.70
31731;DHT22;18310;55.586;12.286;2023-03-23T12:34:53;16.00;66.80
31731;DHT22;18310;55.586;12.286;2023-03-23T12:38:12;16.00;66.40
31731;DHT22;18310;55.586;12.286;2023-03-23T12:41:27;16.10;65.30
31731;DHT22;18310;55.586;12.286;2023-03-23T12:44:43;16.10;65.40
31731;DHT22;18310;55.586;12.286;2023-03-23T12:47:52;16.00;64.40
31731;DHT22;18310;55.586;12.286;2023-03-23T12:51:09;16.00;66.40
31731;DHT22;18310;55.586;12.286;2023-03-23T12:54:23;16.00;65.30
31731;DHT22;18310;55.586;12.286;2023-03-23T12:57:33;16.00;65.30
31731;DHT22;18310;55.586;12.286;2023-03-23T13:00:53;16.10;66.00
31731;DHT22;18310;55.586;12.286;2023-03-23T13:03:59;16.10;63.40
31731;DHT22;18310;55.586;12.286;2023-03-23T13:07:07;16.10;64.40
31731;DHT22;18310;55.586;12.286;2023-03-23T13:10:19;16.20;64.20
31731;DHT22;18310;55.586;12.286;2023-03-23T13:13:39;16.10;63.40
31731;DHT22;18310;55.586;12.286;2023-03-23T13:16:49;16.10;63.40
31731;DHT22;18310;55.586;12.286;2023-03-23T13:20:22;16.10;63.00
31731;DHT22;18310;55.586;12.286;2023-03-23T13:23:39;16.00;62.20
31731;DHT22;18310;55.586;12.286;2023-03-23T13:26:44;16.60;63.60
31731;DHT22;18310;55.586;12.286;2023-03-23T13:29:49;16.00;62.70
31731;DHT22;18310;55.586;12.286;2023-03-23T13:32:51;15.90;62.30
31731;DHT22;18310;55.586;12.286;2023-03-23T13:36:10;15.80;62.50
31731;DHT22;18310;55.586;12.286;2023-03-23T13:39:19;15.80;62.00
31731;DHT22;18310;55.586;12.286;2023-03-23T13:42:25;15.80;62.40
31731;DHT22;18310;55.586;12.286;2023-03-23T13:45:43;15.80;62.00
31731;DHT22;18310;55.586;12.286;2023-03-23T13:48:49;15.80;61.00
31731;DHT22;18310;55.586;12.286;2023-03-23T13:52:05;15.90;61.20
31731;DHT22;18310;55.586;12.286;2023-03-23T13:55:27;15.90;59.50
31731;DHT22;18310;55.586;12.286;2023-03-23T13:58:43;15.90;60.30
31731;DHT22;18310;55.586;12.286;2023-03-23T14:01:47;15.90;60.60
31731;DHT22;18310;55.586;12.286;2023-03-23T14:04:50;16.00;59.60
31731;DHT22;18310;55.586;12.286;2023-03-23T14:07:54;16.10;59.50
31731;DHT22;18310;55.586;12.286;2023-03-23T14:11:29;16.00;59.00
31731;DHT22;18310;55.586;12.286;2023-03-23T14:15:27;16.00;59.30
31731;DHT22;18310;55.586;12.286;2023-03-23T14:18:36;16.00;58.30
31731;DHT22;18310;55.586;12.286;2023-03-23T14:21:42;16.00;58.30
31731;DHT22;18310;55.586;12.286;2023-03-23T14:24:58;16.00;58.70
31731;DHT22;18310;55.586;12.286;2023-03-23T14:28:01;16.00;58.80
31731;DHT22;18310;55.586;12.286;2023-03-23T14:31:04;16.00;58.70
31731;DHT22;18310;55.586;12.286;2023-03-23T14:34:13;15.90;58.60
31731;DHT22;18310;55.586;12.286;2023-03-23T14:37:17;15.90;58.30
31731;DHT22;18310;55.586;12.286;2023-03-23T14:40:19;15.80;58.60
31731;DHT22;18310;55.586;12.286;2023-03-23T14:43:22;15.80;58.90
31731;DHT22;18310;55.586;12.286;2023-03-23T14:46:25;15.80;59.40
31731;DHT22;18310;55.586;12.286;2023-03-23T14:49:31;15.80;59.90
31731;DHT22;18310;55.586;12.286;2023-03-23T14:52:38;15.80;59.40
31731;DHT22;18310;55.586;12.286;2023-03-23T14:55:42;15.90;59.70
31731;DHT22;18310;55.586;12.286;2023-03-23T14:58:45;15.90;59.60
31731;DHT22;18310;55.586;12.286;2023-03-23T15:01:50;15.90;59.10
31731;DHT22;18310;55.586;12.286;2023-03-23T15:04:57;15.90;59.10
31731;DHT22;18310;55.586;12.286;2023-03-23T15:08:04;15.90;59.20
31731;DHT22;18310;55.586;12.286;2023-03-23T15:11:22;15.90;59.00
31731;DHT22;18310;55.586;12.286;2023-03-23T15:14:29;15.90;58.40
31731;DHT22;18310;55.586;12.286;2023-03-23T15:17:35;15.90;58.80
31731;DHT22;18310;55.586;12.286;2023-03-23T15:20:47;15.90;58.90
31731;DHT22;18310;55.586;12.286;2023-03-23T15:23:50;15.90;58.20
31731;DHT22;18310;55.586;12.286;2023-03-23T15:26:53;15.80;58.90
31731;DHT22;18310;55.586;12.286;2023-03-23T15:30:13;15.90;58.90
31731;DHT22;18310;55.586;12.286;2023-03-23T15:33:17;15.80;57.90
31731;DHT22;18310;55.586;12.286;2023-03-23T15:36:21;15.80;58.70
31731;DHT22;18310;55.586;12.286;2023-03-23T15:39:24;15.80;58.20
31731;DHT22;18310;55.586;12.286;2023-03-23T15:42:28;15.70;58.30
31731;DHT22;18310;55.586;12.286;2023-03-23T15:45:31;15.70;58.50
31731;DHT22;18310;55.586;12.286;2023-03-23T15:48:46;15.60;58.10
31731;DHT22;18310;55.586;12.286;2023-03-23T15:51:50;15.50;57.10
31731;DHT22;18310;55.586;12.286;2023-03-23T15:54:52;15.40;57.80
31731;DHT22;18310;55.586;12.286;2023-03-23T15:57:56;15.40;58.50
31731;DHT22;18310;55.586;12.286;2023-03-23T16:01:03;15.30;58.50
31731;DHT22;18310;55.586;12.286;2023-03-23T16:04:10;15.20;58.20
31731;DHT22;18310;55.586;12.286;2023-03-23T16:07:20;15.10;58.50
31731;DHT22;18310;55.586;12.286;2023-03-23T16:10:27;15.10;58.70
31731;DHT22;18310;55.586;12.286;2023-03-23T16:13:30;15.00;58.80
31731;DHT22;18310;55.586;12.286;2023-03-23T16:16:36;14.90;58.90
31731;DHT22;18310;55.586;12.286;2023-03-23T16:19:40;14.80;58.80
31731;DHT22;18310;55.586;12.286;2023-03-23T16:22:45;14.80;59.20
31731;DHT22;18310;55.586;12.286;2023-03-23T16:25:49;14.70;59.10
31731;DHT22;18310;55.586;12.286;2023-03-23T16:28:52;14.60;59.10
31731;DHT22;18310;55.586;12.286;2023-03-23T16:32:10;14.60;59.20
31731;DHT22;18310;55.586;12.286;2023-03-23T16:35:14;14.50;59.20
31731;DHT22;18310;55.586;12.286;2023-03-23T16:38:19;14.50;59.30
31731;DHT22;18310;55.586;12.286;2023-03-23T16:41:22;14.40;59.30
31731;DHT22;18310;55.586;12.286;2023-03-23T16:44:25;14.30;59.50
31731;DHT22;18310;55.586;12.286;2023-03-23T16:47:28;14.30;59.50
31731;DHT22;18310;55.586;12.286;2023-03-23T16:50:31;14.20;59.50
31731;DHT22;18310;55.586;12.286;2023-03-23T16:53:37;14.20;59.60
31731;DHT22;18310;55.586;12.286;2023-03-23T16:56:40;14.80;59.90
31731;DHT22;18310;55.586;12.286;2023-03-23T16:59:47;14.00;59.50
31731;DHT22;18310;55.586;12.286;2023-03-23T17:02:51;14.00;59.70
31731;DHT22;18310;55.586;12.286;2023-03-23T17:05:59;13.80;59.70
31731;DHT22;18310;55.586;12.286;2023-03-23T17:09:04;13.80;59.80
31731;DHT22;18310;55.586;12.286;2023-03-23T17:12:07;13.70;59.80
31731;DHT22;18310;55.586;12.286;2023-03-23T17:15:11;13.60;59.90
31731;DHT22;18310;55.586;12.286;2023-03-23T17:18:14;13.50;59.90
31731;DHT22;18310;55.586;12.286;2023-03-23T17:21:17;13.40;60.00
31731;DHT22;18310;55.586;12.286;2023-03-23T17:24:22;13.40;60.10
31731;DHT22;18310;55.586;12.286;2023-03-23T17:27:25;13.30;60.10
31731;DHT22;18310;55.586;12.286;2023-03-23T17:30:28;13.10;60.20
31731;DHT22;18310;55.586;12.286;2023-03-23T17:33:31;13.20;60.30
31731;DHT22;18310;55.586;12.286;2023-03-23T17:36:34;13.10;60.20
31731;DHT22;18310;55.586;12.286;2023-03-23T17:39:38;13.00;60.20
31731;DHT22;18310;55.586;12.286;2023-03-23T17:42:44;12.90;59.90
31731;DHT22;18310;55.586;12.286;2023-03-23T17:45:47;12.80;60.10
31731;DHT22;18310;55.586;12.286;2023-03-23T17:48:50;12.70;60.10
31731;DHT22;18310;55.586;12.286;2023-03-23T17:51:53;12.70;60.20
31731;DHT22;18310;55.586;12.286;2023-03-23T17:54:57;12.60;60.30
31731;DHT22;18310;55.586;12.286;2023-03-23T17:58:00;12.60;60.40
31731;DHT22;18310;55.586;12.286;2023-03-23T18:01:04;12.50;60.30
31731;DHT22;18310;55.586;12.286;2023-03-23T18:04:07;12.40;60.60
31731;DHT22;18310;55.586;12.286;2023-03-23T18:07:10;12.40;60.80
31731;DHT22;18310;55.586;12.286;2023-03-23T18:10:14;12.30;60.90
31731;DHT22;18310;55.586;12.286;2023-03-23T18:13:17;12.20;61.00
31731;DHT22;18310;55.586;12.286;2023-03-23T18:16:20;12.20;61.30
31731;DHT22;18310;55.586;12.286;2023-03-23T18:19:23;12.10;61.40
31731;DHT22;18310;55.586;12.286;2023-03-23T18:22:26;12.00;61.60
31731;DHT22;18310;55.586;12.286;2023-03-23T18:25:31;12.00;61.80
31731;DHT22;18310;55.586;12.286;2023-03-23T18:28:34;11.90;61.80
31731;DHT22;18310;55.586;12.286;2023-03-23T18:31:37;11.90;62.10
31731;DHT22;18310;55.586;12.286;2023-03-23T18:34:40;11.80;62.10
31731;DHT22;18310;55.586;12.286;2023-03-23T18:37:44;11.80;62.30
31731;DHT22;18310;55.586;12.286;2023-03-23T18:40:49;11.80;62.40
31731;DHT22;18310;55.586;12.286;2023-03-23T18:43:52;11.70;62.40
31731;DHT22;18310;55.586;12.286;2023-03-23T18:46:58;11.70;62.60
31731;DHT22;18310;55.586;12.286;2023-03-23T18:50:01;11.60;62.90
31731;DHT22;18310;55.586;12.286;2023-03-23T18:53:04;11.60;63.10
31731;DHT22;18310;55.586;12.286;2023-03-23T18:56:11;11.60;63.30
31731;DHT22;18310;55.586;12.286;2023-03-23T18:59:16;11.60;63.50
31731;DHT22;18310;55.586;12.286;2023-03-23T19:02:19;11.60;63.40
31731;DHT22;18310;55.586;12.286;2023-03-23T19:05:22;11.60;63.40
31731;DHT22;18310;55.586;12.286;2023-03-23T19:08:26;11.60;63.40
31731;DHT22;18310;55.586;12.286;2023-03-23T19:11:31;11.50;63.60
31731;DHT22;18310;55.586;12.286;2023-03-23T19:14:34;11.40;63.90
31731;DHT22;18310;55.586;12.286;2023-03-23T19:17:37;11.30;63.60
31731;DHT22;18310;55.586;12.286;2023-03-23T19:20:40;11.30;63.90